Latest Coastal Weather Observations for Neptune Island

IDT60701

Issued at 9:22 pm EST Tuesday 28 June 2016 (issued every 10 minutes, with the page automatically refreshed every 10 minutes)

About coastal observations | Map of coastal stations | Coastal observations for TAS | Marine services | Other Formats
Station Details ID: 018115 Name: NEPTUNE ISLAND Lat: -35.34 Lon: 136.12 Height: 32.0 m
Data from the previous 72 hours. | See also: Recent months at Neptune Island
Date/Time
EST
Temp
°C
Wind Pressure Rain since
9am
mm
Weather Cloud Vis
km
Sea
Height
m
Swell
Dir  Spd
kts
Gust
kts
hPa Trend Height
m
Period
s
Dir
28/09:00pm 14.1 NNW 15 17 1024.0 - 0.0 - - - - - - -
28/08:30pm 14.1 NNW 16 19 1023.8 - 0.0 - - - - - - -
28/08:00pm 14.2 NNW 16 20 1023.8 - 0.0 - - - - - - -
28/07:30pm 14.2 NNW 17 21 1023.5 - 0.0 - - - - - - -
28/07:00pm 14.3 NNW 19 23 1023.4 - 0.0 - - - - - - -
28/06:30pm 14.3 NNW 19 21 1023.2 - 0.0 - - - - - - -
28/06:00pm 14.5 NNW 18 22 1023.1 - 0.0 - - - - - - -
28/05:30pm 14.7 NNW 18 21 1023.0 - 0.0 - - - - - - -
28/05:00pm 15.3 NW 21 25 1023.0 - 0.0 - - - - - - -
28/04:30pm 15.3 NW 21 24 1023.0 - 0.0 - - - - - - -
28/04:00pm 15.0 NW 22 25 1022.9 - 0.0 - - - - - - -
28/03:30pm 14.8 NW 15 18 1023.2 - 0.0 - - - - - - -
28/03:00pm 14.2 WNW 21 26 1023.2 - 0.0 - - - - - - -
28/02:30pm 14.7 NW 21 25 1023.3 - 0.0 - - - - - - -
28/02:00pm 14.4 NW 19 23 1023.7 - 0.0 - - - - - - -
28/01:30pm 14.0 NNW 23 27 1023.8 - 0.0 - - - - - - -
28/01:00pm 14.5 NNW 23 28 1024.2 - 0.0 - - - - - - -
28/12:30pm 14.7 NNW 22 26 1024.4 - 0.0 - - - - - - -
28/12:00pm 14.1 NW 22 26 1024.8 - 0.0 - - - - - - -
28/11:30am 14.2 NW 22 26 1025.0 - 0.0 - - - - - - -
28/11:00am 14.5 NW 23 28 1024.7 - 0.0 - - - - - - -
28/10:30am 14.1 NW 20 24 1024.7 - 0.0 - - - - - - -
28/10:00am 14.1 NW 23 26 1024.5 - 0.0 - - - - - - -
28/09:30am 14.3 NNW 21 24 1024.2 - 12.6 - - - - - - -
28/09:00am 14.0 NNW 21 23 1023.8 - 12.6 - - - - - - -
28/08:30am 13.8 NNW 19 22 1023.7 - 12.6 - - - - - - -
28/08:00am 13.8 NW 16 19 1023.5 - 12.6 - - - - - - -
28/07:30am 13.8 NW 20 23 1023.3 - 12.6 - - - - - - -
28/07:00am 14.0 NW 18 23 1022.7 - 12.6 - - - - - - -
28/06:30am 13.6 NW 21 26 1022.3 - 12.6 - - - - - - -
28/06:00am 13.6 NW 20 26 1022.2 - 12.6 - - - - - - -
28/05:30am 13.8 NW 18 21 1022.1 - 12.6 - - - - - - -
28/05:00am 13.4 NW 16 20 1022.0 - 12.6 - - - - - - -
28/04:30am 13.6 NNW 20 23 1021.8 - 12.6 - - - - - - -
28/04:00am 13.9 NW 19 22 1021.8 - 12.6 - - - - - - -
28/03:30am 14.0 NW 13 17 1022.1 - 12.4 Recent precip. - - - - - -
28/03:00am 13.3 NW 9 15 1022.4 - 11.0 - - - - - - -
28/02:30am 13.6 NNW 13 15 1022.2 - 4.8 - - - - - - -
28/02:00am 14.0 WNW 14 17 1022.1 - 4.8 - - - - - - -
28/01:30am 14.3 WNW 16 19 1022.2 - 4.8 - - - - - - -
28/01:00am 14.0 WNW 19 25 1022.4 - 4.8 - - - - - - -
28/12:30am 13.9 WNW 14 17 1022.4 - 4.6 - - - - - - -
28/12:00am 14.1 WNW 20 23 1022.4 - 4.6 - - - - - - -
 
Date/Time
EST
Temp
°C
Wind Pressure Rain since
9am
mm
Weather Cloud Vis
km
Sea
Height
m
Swell
Dir  Spd
kts
Gust
kts
hPa Trend Height
m
Period
s
Dir
27/11:30pm 14.2 W 18 21 1022.2 - 4.6 - - - - - - -
27/11:00pm 13.9 WNW 16 21 1022.2 - 4.6 - - - - - - -
27/10:55pm 13.4 WNW 17 27 1022.2 - 4.6 - - - - - - -
27/10:30pm 14.2 W 17 21 1022.1 - 3.0 - - - - - - -
27/10:17pm 13.8 WNW 14 26 1021.9 - 3.0 - - - - - - -
27/10:00pm 13.9 WNW 13 15 1022.1 - 3.0 - - - - - - -
27/09:30pm 13.5 WNW 15 20 1022.2 - 3.0 - - - - - - -
27/09:00pm 13.8 WNW 18 23 1022.0 - 3.0 - - - - - - -
27/08:30pm 14.2 WNW 11 19 1021.7 - 3.0 - - - - - - -
27/08:00pm 13.7 WNW 14 16 1021.8 - 1.8 - - - - - - -
27/07:30pm 13.5 WNW 11 14 1021.5 - 1.6 - - - - - - -
27/07:00pm 14.1 WNW 15 21 1021.3 - 0.4 - - - - - - -
27/06:30pm 14.3 W 16 19 1020.9 - 0.4 - - - - - - -
27/06:00pm 14.5 W 19 23 1020.7 - 0.4 - - - - - - -
27/05:30pm 14.7 WNW 15 19 1020.5 - 0.4 - - - - - - -
27/05:00pm 14.7 WNW 17 20 1020.3 - 0.4 - - - - - - -
27/04:30pm 15.0 W 18 22 1020.2 - 0.4 - - - - - - -
27/04:00pm 15.2 W 18 21 1020.2 - 0.4 - - - - - - -
27/03:30pm 15.3 W 17 20 1020.1 - 0.4 - - - - - - -
27/03:00pm 15.2 W 18 22 1019.9 - 0.4 - - - - - - -
27/02:30pm 15.0 W 18 20 1020.2 - 0.4 - - - - - - -
27/02:00pm 14.6 W 17 19 1020.3 - 0.4 - - - - - - -
27/01:30pm 14.1 W 10 13 1020.7 - 0.4 - - - - - - -
27/01:00pm 12.5 W 16 22 1021.1 - 0.4 - - - - - - -
27/12:41pm 14.0 W 16 30 1020.8 - 0.0 - - - - - - -
27/12:30pm 15.3 W 14 17 1021.2 - 0.0 - - - - - - -
27/12:00pm 14.8 W 14 17 1021.4 - 0.0 - - - - - - -
27/11:30am 14.5 WSW 14 17 1021.5 - 0.0 - - - - - - -
27/11:00am 14.6 W 16 19 1021.4 - 0.0 - - - - - - -
27/10:30am 14.4 WSW 14 17 1021.2 - 0.0 - - - - - - -
27/10:00am 13.8 WSW 17 20 1020.8 - 0.0 - - - - - - -
27/09:30am 13.8 WSW 14 16 1020.6 - 10.2 - - - - - - -
27/09:00am 13.5 WSW 15 18 1020.3 - 10.2 - - - - - - -
27/08:30am 13.4 SW 15 20 1019.9 - 10.2 - - - - - - -
27/08:00am 13.6 WSW 15 18 1019.5 - 10.2 - - - - - - -
27/07:30am 13.5 WSW 17 20 1019.2 - 10.2 - - - - - - -
27/07:00am 13.6 WSW 18 21 1018.8 - 10.2 - - - - - - -
27/06:30am 13.6 WSW 17 21 1018.5 - 10.2 - - - - - - -
27/06:00am 13.5 SW 16 19 1018.2 - 10.2 - - - - - - -
27/05:30am 13.2 SW 13 16 1018.0 - 10.2 - - - - - - -
27/05:00am 13.1 SW 14 17 1017.8 - 10.2 - - - - - - -
27/04:30am 13.2 SSW 14 19 1017.6 - 10.2 - - - - - - -
27/04:00am 13.1 SW 15 20 1017.5 - 10.2 - - - - - - -
27/03:30am 13.0 SW 15 18 1017.5 - 10.2 - - - - - - -
27/03:00am 13.2 SSW 16 20 1017.2 - 10.2 - - - - - - -
27/02:30am 13.1 SW 17 20 1017.0 - 10.2 - - - - - - -
27/02:00am 13.3 SSW 17 20 1016.9 - 10.2 - - - - - - -
27/01:30am 13.2 SSW 17 22 1017.0 - 10.2 - - - - - - -
27/01:00am 13.2 SSW 19 23 1016.9 - 10.2 - - - - - - -
27/12:30am 13.0 SSW 18 23 1016.9 - 10.2 - - - - - - -
27/12:00am 13.4 SSW 20 24 1016.7 - 10.2 - - - - - - -
 
Date/Time
EST
Temp
°C
Wind Pressure Rain since
9am
mm
Weather Cloud Vis
km
Sea
Height
m
Swell
Dir  Spd
kts
Gust
kts
hPa Trend Height
m
Period
s
Dir
26/11:30pm 13.4 SSW 19 24 1016.5 - 10.2 - - - - - - -
26/11:00pm 13.2 S 20 23 1016.3 - 10.2 - - - - - - -
26/10:30pm 13.1 S 18 24 1015.9 - 10.2 - - - - - - -
26/10:28pm 13.0 S 16 24 1015.9 - 10.2 - - - - - - -
26/10:00pm 11.7 SSE 11 16 1016.0 - 10.2 - - - - - - -
26/09:30pm 11.4 SSW 13 16 1015.9 - 9.4 Rain - - - - - -
26/09:00pm 12.0 SSW 11 20 1015.5 - 8.0 - - - - - - -
26/08:30pm 12.5 W 9 12 1015.2 - 4.8 - - - - - - -
26/08:00pm 12.1 WSW 9 11 1015.1 - 4.8 - - - - - - -
26/07:30pm 11.7 W 19 22 1014.8 - 4.0 - - - - - - -
26/07:07pm 12.3 WNW 19 25 1014.6 - 3.4 - - - - - - -
26/07:00pm 12.9 NW 18 21 1014.5 - 3.4 - - - - - - -
26/06:30pm 12.8 NW 17 19 1014.1 - 3.4 - - - - - - -
26/06:00pm 13.0 WNW 14 18 1013.9 - 3.4 - - - - - - -
26/05:30pm 12.7 WNW 11 14 1013.9 - 3.4 - - - - - - -
26/05:00pm 13.1 W 15 20 1013.6 - 1.6 - - - - - - -
26/04:30pm 13.0 WNW 18 21 1013.4 - 1.2 - - - - - - -
26/04:00pm 13.1 NW 17 22 1013.3 - 1.0 - - - - - - -
26/03:49pm 13.0 NW 19 24 1013.3 - 1.0 - - - - - - -
26/03:30pm 13.0 NNW 20 24 1013.0 - 1.0 Recent precip. - - - - - -
26/03:00pm 12.9 NNW 20 23 1013.0 - 1.0 - - - - - - -
26/02:30pm 12.2 NW 18 23 1013.5 - 0.2 - - - - - - -
26/02:00pm 13.6 NNW 19 23 1013.6 - 0.0 - - - - - - -
26/01:30pm 12.6 NNW 17 23 1014.2 - 0.0 - - - - - - -
26/01:00pm 13.7 NNW 20 24 1014.4 - 0.0 - - - - - - -
26/12:30pm 13.6 NNW 19 24 1014.6 - 0.0 - - - - - - -
26/12:00pm 13.3 NNW 19 23 1015.1 - 0.0 - - - - - - -
26/11:30am 13.5 NNW 17 21 1015.6 - 0.0 - - - - - - -
26/11:00am 12.8 NNW 17 20 1015.7 - 0.0 - - - - - - -
26/10:30am 12.9 NNW 15 18 1015.7 - 0.0 - - - - - - -
26/10:00am 12.3 NNW 17 20 1015.7 - 0.0 - - - - - - -
26/09:30am 11.9 NNW 19 22 1016.0 - 0.0 - - - - - - -
26/09:00am 12.1 NNW 17 20 1015.8 - 0.0 - - - - - - -
26/08:30am 11.6 NNW 18 22 1015.6 - 0.0 - - - - - - -
26/08:00am 11.5 NNW 18 22 1015.6 - 0.0 - - - - - - -
26/07:30am 11.5 NNW 21 25 1015.6 - 0.0 - - - - - - -
26/07:00am 11.6 NNW 21 25 1015.6 - 0.0 - - - - - - -
26/06:30am 11.8 NNW 21 24 1015.4 - 0.0 - - - - - - -
26/06:00am 12.2 NNW 18 22 1015.3 - 0.0 - - - - - - -
26/05:30am 12.3 NNW 16 20 1015.3 - 0.0 - - - - - - -
26/05:00am 12.2 NNW 15 19 1015.6 - 0.0 - - - - - - -
26/04:30am 11.7 NNW 18 22 1016.0 - 0.0 - - - - - - -
26/04:00am 11.3 NNW 19 23 1016.4 - 0.0 - - - - - - -
26/03:30am 11.4 NNW 19 24 1016.7 - 0.0 - - - - - - -
26/03:00am 11.6 N 19 23 1016.6 - 0.0 - - - - - - -
26/02:30am 11.5 N 20 25 1016.8 - 0.0 - - - - - - -
26/02:00am 11.5 N 19 23 1017.0 - 0.0 - - - - - - -
26/01:30am 11.3 N 18 22 1017.1 - 0.0 - - - - - - -
26/01:00am 11.5 NNW 20 24 1017.3 - 0.0 - - - - - - -
26/12:30am 11.8 N 19 23 1017.6 - 0.0 - - - - - - -
26/12:00am 12.0 N 18 23 1017.7 - 0.0 - - - - - - -
 
Date/Time
EST
Temp
°C
Wind Pressure Rain since
9am
mm
Weather Cloud Vis
km
Sea
Height
m
Swell
Dir  Spd
kts
Gust
kts
hPa Trend Height
m
Period
s
Dir
25/11:30pm 12.1 N 20 24 1017.9 - 0.0 - - - - - - -
25/11:00pm 12.2 N 21 25 1018.1 - 0.0 - - - - - - -
25/10:30pm 12.5 N 18 22 1018.3 - 0.0 - - - - - - -
25/10:00pm 12.3 NNW 18 22 1018.5 - 0.0 - - - - - - -

Other Formats:

Comma delimited format used in spreadsheet applications
http://www.bom.gov.au/fwo/IDT60701/IDT60701.94804.axf

JavaScript Object Notation format (JSON) in row-major order
http://www.bom.gov.au/fwo/IDT60701/IDT60701.94804.json